• Join FlightAware (Why Join?)
  • Login
  • US Flag 
11:38AM EDT


 

Airport Tracker/Info


-or-


 

Live Flight TrackerFlight Track Log ✈ SWA2004 ✈ 28-Apr-2013 ✈ KBNA - KCMH

Flight Track Log - Related Links

Times and Time Zones

All times are in EDT time to prevent confusion due to time zone crossing. See the SWA2004 flight status page for this flight to view local times or setup timezone preferences in your user account.

Time Position Orientation Groundspeed Altitude Reporting Facility
EDT Latitude Longitude Course Direction KTS MPH feet Rate Location/Type
09:07PM 36.2000 -86.6500 15° North 221 254 3,400  Level Nashville TRACON
09:08PM 36.2833 -86.6167 18° North 300 345 5,600 2,400 Climbing Nashville TRACON
09:10PM 36.3594 -86.5767 23° Northeast 330 380 9,000 2,820 Climbing Memphis Center
09:11PM 36.4417 -86.5392 20° North 314 361 11,900 2,940 Climbing Memphis Center
09:12PM 36.5319 -86.4936 22° Northeast 328 377 14,900 2,880 Climbing Memphis Center
09:13PM 36.6261 -86.4372 26° Northeast 351 404 17,700 3,000 Climbing Memphis Center
09:14PM 36.7283 -86.3806 24° Northeast 380 437 20,900 2,580 Climbing Memphis Center
09:15PM 36.9303 -86.2953 19° North 423 487 25,100 2,040 Climbing Indianapolis Center
09:17PM 37.0483 -86.2289 24° Northeast 457 526 26,800 1,800 Climbing Indianapolis Center
09:18PM 37.1689 -86.1556 26° Northeast 476 548 28,800 1,860 Climbing Indianapolis Center
09:19PM 37.2911 -86.0817 26° Northeast 481 554 30,700 1,800 Climbing Indianapolis Center
09:20PM 37.4153 -86.0036 27° Northeast 492 566 32,500 1,080 Climbing Indianapolis Center
09:21PM 37.5400 -85.9281 26° Northeast 493 567 33,000 240 Climbing Indianapolis Center
09:22PM 37.6781 -85.8431 26° Northeast 490 564 33,000  Level Indianapolis Center
09:23PM 37.8003 -85.7678 26° Northeast 489 563 33,000  Level Indianapolis Center
09:24PM 37.9211 -85.6919 26° Northeast 485 558 33,000  Level Indianapolis Center
09:25PM 38.0422 -85.6164 26° Northeast 484 557 33,000  Level Indianapolis Center
09:26PM 38.1583 -85.5258 32° Northeast 495 570 33,000  Level Indianapolis Center
09:27PM 38.2681 -85.4225 36° Northeast 495 570 33,000  Level Indianapolis Center
09:28PM 38.3742 -85.3208 37° Northeast 484 557 33,000 -300 Level Indianapolis Center
09:29PM 38.4964 -85.2044 37° Northeast 481 554 32,500 -1,020 Descending Indianapolis Center
09:30PM 38.6031 -85.1028 37° Northeast 479 551 31,000 -780 Descending Indianapolis Center
09:31PM 38.7067 -85.0031 37° Northeast 469 540 31,000 -1,080 Level Indianapolis Center
09:32PM 38.8208 -84.9261 28° Northeast 460 529 28,800 -2,160 Descending Indianapolis Center
09:33PM 38.9219 -84.8200 39° Northeast 461 531 26,600 -2,340 Descending Indianapolis Center
09:34PM 39.0103 -84.7086 44° Northeast 445 512 24,100 -1,740 Descending Indianapolis Center
09:35PM 39.0828 -84.5825 53° Northeast 436 502 23,100 -1,020 Descending Indianapolis Center
09:36PM 39.1525 -84.4539 55° Northeast 434 499 22,100 -1,020 Descending Indianapolis Center
09:37PM 39.2222 -84.3292 54° Northeast 427 491 21,100 -1,020 Descending Indianapolis Center
09:38PM 39.2897 -84.2042 55° Northeast 422 486 20,100 -1,020 Descending Indianapolis Center
09:39PM 39.3433 -84.0697 63° Northeast 416 479 19,100 -1,020 Descending Indianapolis Center
09:40PM 39.3944 -83.9378 63° Northeast 409 471 18,100 -1,140 Descending Indianapolis Center
09:41PM 39.4525 -83.7847 64° Northeast 406 467 16,900 -1,380 Descending Indianapolis Center
09:42PM 39.5022 -83.6561 63° Northeast 399 459 15,300 -1,920 Descending Indianapolis Center
09:43PM 39.5406 -83.5528 64° Northeast 393 452 13,400 -2,100 Descending Indianapolis Center
09:44PM 39.5981 -83.4075 63° Northeast 384 442 11,000 -1,320 Descending Indianapolis Center
09:45PM 39.6586 -83.3100 51° Northeast 351 404 10,700 -540 Descending Indianapolis Center
09:46PM 39.7053 -83.2125 58° Northeast 313 360 10,000 -360 Descending Indianapolis Center
09:47PM 39.7411 -83.1192 63° Northeast 306 352 10,100  Climbing Indianapolis Center
09:48PM 39.7822 -83.0100 64° Northeast 324 373 10,000 -840 Descending Indianapolis Center
09:49PM 39.8056 -82.9122 73° East 307 353 8,500 -1,560 Descending Indianapolis Center
09:49PM 39.8094 -82.8967 72° East 313 360 8,200 -1,800 Descending Indianapolis Center
09:50PM 39.8294 -82.8064 74° East 305 351 6,700 -1,800 Descending Indianapolis Center
09:50PM 39.8333 -82.7894 73° East 308 354 6,400 -720 Descending Indianapolis Center
09:51PM 39.8506 -82.7108 74° East 262 302 6,000 -540 Descending Indianapolis Center
09:51PM 39.8528 -82.6944 80° East 276 318 5,900 -840 Descending Indianapolis Center
09:52PM 39.8903 -82.6447 45° Northeast 197 227 5,100 -960 Descending Indianapolis Center
09:53PM 39.9503 -82.6253 14° North 198 228 4,000 -840 Descending Indianapolis Center
09:54PM 39.9611 -82.6497 300° West 174 200 3,700 -1,020 Descending Indianapolis Center
09:54PM 39.9783 -82.6767 310° West 179 206 3,000 -600 Descending Indianapolis Center
09:55PM 39.9825 -82.7092 280° West 180 207 3,100 -120 Climbing Indianapolis Center
09:55PM 39.9864 -82.7372 280° West 176 203 2,900 -720 Descending Indianapolis Center
09:56PM 39.9869 -82.7697 271° West 168 193 2,400 -900 Descending Indianapolis Center
09:56PM 39.9894 -82.7931 278° West 165 190 2,000 -720 Descending Indianapolis Center
09:57PM 39.9897 -82.8217 271° West 136 157 1,700 -720 Descending Indianapolis Center
09:57PM 39.9914 -82.8433 276° West 149 171 1,300 -360 Descending Indianapolis Center
09:58PM 39.9936 -82.8917 273° West 147 169 1,200 -120 Descending Indianapolis Center
10:00PM 39.9980 -82.8920 270° West  Level Estimated